createdAt,value
2018-09-09T00:00:27.225Z,17.30
2018-09-09T00:02:56.402Z,17.00
2018-09-09T00:05:25.579Z,16.90
2018-09-09T00:07:54.829Z,16.90
2018-09-09T00:10:24.206Z,16.90
2018-09-09T00:12:53.389Z,16.90
2018-09-09T00:15:22.611Z,17.00
2018-09-09T00:17:51.837Z,17.10
2018-09-09T00:20:21.008Z,17.10
2018-09-09T00:22:50.186Z,17.10
2018-09-09T00:25:19.302Z,17.10
2018-09-09T00:27:48.535Z,17.10
2018-09-09T00:30:17.754Z,17.10
2018-09-09T00:32:46.914Z,17.00
2018-09-09T00:35:16.149Z,17.00
2018-09-09T00:37:45.562Z,16.70
2018-09-09T00:40:14.712Z,16.50
2018-09-09T00:42:44.229Z,16.60
2018-09-09T00:45:13.342Z,16.70
2018-09-09T00:47:42.486Z,16.60
2018-09-09T00:50:16.927Z,16.50
2018-09-09T00:52:51.311Z,16.60
2018-09-09T00:55:20.508Z,16.70
2018-09-09T00:57:49.858Z,16.70
2018-09-09T01:00:24.412Z,16.70
2018-09-09T01:02:53.574Z,16.60
2018-09-09T01:05:22.721Z,16.60
2018-09-09T01:07:52.112Z,16.60
2018-09-09T01:10:21.240Z,16.50
2018-09-09T01:12:50.379Z,16.50
2018-09-09T01:15:19.527Z,16.50
2018-09-09T01:17:48.747Z,16.30
2018-09-09T01:20:17.906Z,16.20
2018-09-09T01:22:47.195Z,16.30
2018-09-09T01:25:16.586Z,16.40
2018-09-09T01:27:45.847Z,16.40
2018-09-09T01:30:15.022Z,16.40
2018-09-09T01:32:44.186Z,16.20
2018-09-09T01:35:13.314Z,16.10
2018-09-09T01:37:42.479Z,16.10
2018-09-09T01:40:11.640Z,16.10
2018-09-09T01:42:40.816Z,16.00
2018-09-09T01:45:09.960Z,16.10
2018-09-09T01:47:39.098Z,16.00
2018-09-09T01:50:08.305Z,16.20
2018-09-09T01:52:37.445Z,16.30
2018-09-09T01:55:06.790Z,16.30
2018-09-09T01:57:35.947Z,16.30
2018-09-09T02:00:05.312Z,16.00
2018-09-09T02:02:34.509Z,16.00
2018-09-09T02:05:03.689Z,16.00
2018-09-09T02:07:32.825Z,15.80
2018-09-09T02:10:02.103Z,15.50
2018-09-09T02:12:31.198Z,15.60
2018-09-09T02:15:00.370Z,15.70
2018-09-09T02:17:29.531Z,15.60
2018-09-09T02:19:58.721Z,15.80
2018-09-09T02:22:27.886Z,15.80
2018-09-09T02:24:57.080Z,15.70
2018-09-09T02:27:26.209Z,15.90
2018-09-09T02:29:55.404Z,16.00
2018-09-09T02:32:24.535Z,16.10
2018-09-09T02:34:53.701Z,15.90
2018-09-09T02:37:22.836Z,15.90
2018-09-09T02:39:51.972Z,15.90
2018-09-09T02:42:21.127Z,15.90
2018-09-09T02:44:50.583Z,15.80
2018-09-09T02:47:19.779Z,15.90
2018-09-09T02:49:49.102Z,15.90
2018-09-09T02:52:18.254Z,15.90
2018-09-09T02:54:47.453Z,15.90
2018-09-09T02:57:16.641Z,15.90
2018-09-09T02:59:45.720Z,15.90
2018-09-09T03:02:14.867Z,15.80
2018-09-09T03:04:44.014Z,15.80
2018-09-09T03:07:13.150Z,15.70
2018-09-09T03:09:42.269Z,15.60
2018-09-09T03:12:11.402Z,15.70
2018-09-09T03:14:40.539Z,15.80
2018-09-09T03:17:09.657Z,15.70
2018-09-09T03:19:38.774Z,15.80
2018-09-09T03:22:08.003Z,15.80
2018-09-09T03:24:37.165Z,15.80
2018-09-09T03:27:06.317Z,15.70
2018-09-09T03:29:35.587Z,15.80
2018-09-09T03:32:04.641Z,15.70
2018-09-09T03:34:33.779Z,15.40
2018-09-09T03:37:02.902Z,15.50
2018-09-09T03:39:32.081Z,15.70
2018-09-09T03:42:01.271Z,15.80
2018-09-09T03:44:30.453Z,15.80
2018-09-09T03:46:59.610Z,15.80
2018-09-09T03:49:28.764Z,15.80
2018-09-09T03:51:57.985Z,15.60
2018-09-09T03:54:27.154Z,15.40
2018-09-09T03:56:56.303Z,15.50
2018-09-09T03:59:25.450Z,15.50
2018-09-09T04:01:54.574Z,15.50
2018-09-09T04:04:23.763Z,15.60
2018-09-09T04:06:52.974Z,15.50
2018-09-09T04:09:22.105Z,15.40
2018-09-09T04:11:51.266Z,15.30
2018-09-09T04:14:20.467Z,15.30
2018-09-09T04:16:49.640Z,15.10
2018-09-09T04:19:18.898Z,15.10
2018-09-09T04:21:52.162Z,15.10
2018-09-09T04:24:22.692Z,15.20
2018-09-09T04:26:52.229Z,15.30
2018-09-09T04:29:21.399Z,15.40
2018-09-09T04:31:50.575Z,15.40
2018-09-09T04:34:19.685Z,15.40
2018-09-09T04:36:48.882Z,15.40
2018-09-09T04:39:18.026Z,15.30
2018-09-09T04:41:47.226Z,15.00
2018-09-09T04:44:16.381Z,14.90
2018-09-09T04:46:45.577Z,15.10
2018-09-09T04:49:14.694Z,15.20
2018-09-09T04:51:43.852Z,15.30
2018-09-09T04:54:13.007Z,15.40
2018-09-09T04:56:42.148Z,15.40
2018-09-09T04:59:11.321Z,15.40
2018-09-09T05:01:40.478Z,15.50
2018-09-09T05:04:09.598Z,15.40
2018-09-09T05:06:38.737Z,14.90
2018-09-09T05:09:08.587Z,15.20
2018-09-09T05:11:38.051Z,15.40
2018-09-09T05:14:07.385Z,15.50
2018-09-09T05:16:37.381Z,15.50
2018-09-09T05:19:06.522Z,15.60
2018-09-09T05:21:35.670Z,15.70
2018-09-09T05:24:04.864Z,15.60
2018-09-09T05:26:34.006Z,15.70
2018-09-09T05:29:03.154Z,15.60
2018-09-09T05:31:32.314Z,15.60
2018-09-09T05:34:01.473Z,15.60
2018-09-09T05:36:30.635Z,15.60
2018-09-09T05:38:59.834Z,15.60
2018-09-09T05:41:29.008Z,15.70
2018-09-09T05:43:58.227Z,15.90
2018-09-09T05:46:27.365Z,15.90
2018-09-09T05:48:56.623Z,15.90
2018-09-09T05:51:25.795Z,16.00
2018-09-09T05:53:55.155Z,16.10
2018-09-09T05:56:24.302Z,16.20
2018-09-09T05:58:53.506Z,16.20
2018-09-09T06:01:22.724Z,16.30
2018-09-09T06:03:52.178Z,16.20
2018-09-09T06:06:21.342Z,16.10
2018-09-09T06:08:50.557Z,16.20
2018-09-09T06:11:19.697Z,16.30
2018-09-09T06:13:48.906Z,16.30
2018-09-09T06:16:18.077Z,15.90
2018-09-09T06:18:47.217Z,16.10
2018-09-09T06:21:16.376Z,16.30
2018-09-09T06:23:45.568Z,16.30
2018-09-09T06:26:14.724Z,16.30
2018-09-09T06:28:43.895Z,16.40
2018-09-09T06:31:13.060Z,16.40
2018-09-09T06:33:48.559Z,16.40
2018-09-09T06:36:17.706Z,16.50
2018-09-09T06:38:46.830Z,16.60
2018-09-09T06:41:16.029Z,16.60
2018-09-09T06:43:45.205Z,16.60
2018-09-09T06:46:14.376Z,16.70
2018-09-09T06:48:43.560Z,16.80
2018-09-09T06:51:12.780Z,16.90
2018-09-09T06:53:41.890Z,16.90
2018-09-09T06:56:11.061Z,16.90
2018-09-09T06:58:40.231Z,17.00
2018-09-09T07:01:09.652Z,16.90
2018-09-09T07:03:38.863Z,17.00
2018-09-09T07:06:08.145Z,17.00
2018-09-09T07:08:37.329Z,17.00
2018-09-09T07:11:06.540Z,17.00
2018-09-09T07:13:35.724Z,17.00
2018-09-09T07:16:05.019Z,17.10
2018-09-09T07:18:34.181Z,17.30
2018-09-09T07:21:03.364Z,17.40
2018-09-09T07:23:32.561Z,17.60
2018-09-09T07:26:01.746Z,17.70
2018-09-09T07:28:31.133Z,17.80
2018-09-09T07:31:00.251Z,17.80
2018-09-09T07:33:29.377Z,17.70
2018-09-09T07:35:58.744Z,17.70
2018-09-09T07:38:27.940Z,17.60
2018-09-09T07:40:57.085Z,17.80
2018-09-09T07:43:26.252Z,17.80
2018-09-09T07:45:55.433Z,17.90
2018-09-09T07:48:24.662Z,18.00
2018-09-09T07:50:53.838Z,18.10
2018-09-09T07:53:23.046Z,18.30
2018-09-09T07:55:52.258Z,18.70
2018-09-09T07:58:21.439Z,19.00
2018-09-09T08:00:50.658Z,19.50
2018-09-09T08:03:19.846Z,21.00
2018-09-09T08:05:49.025Z,22.70
2018-09-09T08:08:18.204Z,24.40
2018-09-09T08:10:47.506Z,25.90
2018-09-09T08:13:16.658Z,26.10
2018-09-09T08:15:45.856Z,25.70
2018-09-09T08:18:15.017Z,24.70
2018-09-09T08:20:44.165Z,23.20
2018-09-09T08:23:13.348Z,22.40
2018-09-09T08:25:42.613Z,21.40
2018-09-09T08:28:11.821Z,21.00
2018-09-09T08:30:41.052Z,20.70
2018-09-09T08:33:10.241Z,20.50
2018-09-09T08:35:39.573Z,20.60
2018-09-09T08:38:08.702Z,20.70
2018-09-09T08:40:37.840Z,21.00
2018-09-09T08:43:07.031Z,20.90
2018-09-09T08:45:36.219Z,20.90
2018-09-09T08:48:05.810Z,20.90
2018-09-09T08:50:35.027Z,21.00
2018-09-09T08:53:04.201Z,20.90
2018-09-09T08:55:33.410Z,20.80
2018-09-09T08:58:08.634Z,20.80
2018-09-09T09:00:37.778Z,20.90
2018-09-09T09:03:07.060Z,20.90
2018-09-09T09:05:36.214Z,21.00
2018-09-09T09:08:05.468Z,21.00
2018-09-09T09:10:34.641Z,21.10
2018-09-09T09:13:03.881Z,21.20
2018-09-09T09:15:33.064Z,21.30
2018-09-09T09:18:02.270Z,21.30
2018-09-09T09:20:31.496Z,21.30
2018-09-09T09:23:00.694Z,21.30
2018-09-09T09:25:29.901Z,21.30
2018-09-09T09:27:59.043Z,21.30
2018-09-09T09:30:28.241Z,21.40
2018-09-09T09:32:57.398Z,21.50
2018-09-09T09:36:01.003Z,21.60
2018-09-09T09:38:30.150Z,21.70
2018-09-09T09:40:59.380Z,22.00
2018-09-09T09:43:28.519Z,22.20
2018-09-09T09:45:57.723Z,22.20
2018-09-09T09:48:26.905Z,22.20
2018-09-09T09:50:56.184Z,22.30
2018-09-09T09:53:25.577Z,22.40
2018-09-09T09:55:54.704Z,22.50
2018-09-09T09:58:23.915Z,22.50
2018-09-09T10:00:59.669Z,22.50
2018-09-09T10:03:28.926Z,22.70
2018-09-09T10:05:58.147Z,22.90
2018-09-09T10:08:27.952Z,23.00
2018-09-09T10:10:57.145Z,23.10
2018-09-09T10:13:26.310Z,23.10
2018-09-09T10:15:55.504Z,23.20
2018-09-09T10:18:24.617Z,23.30
2018-09-09T10:20:53.862Z,23.50
2018-09-09T10:23:23.013Z,23.70
2018-09-09T10:25:52.211Z,23.80
2018-09-09T10:28:21.371Z,23.80
2018-09-09T10:30:50.582Z,23.80
2018-09-09T10:33:19.861Z,24.00
2018-09-09T10:35:49.839Z,24.00
2018-09-09T10:38:19.089Z,23.90
2018-09-09T10:40:48.386Z,23.80
2018-09-09T10:43:17.622Z,23.80
2018-09-09T10:45:46.821Z,23.90
2018-09-09T10:48:16.126Z,23.80
2018-09-09T10:50:45.328Z,23.90
2018-09-09T10:53:14.570Z,24.00
2018-09-09T10:55:43.767Z,24.00
2018-09-09T10:58:12.934Z,23.90
2018-09-09T11:00:42.141Z,23.80
2018-09-09T11:03:11.353Z,23.90
2018-09-09T11:05:41.073Z,24.10
2018-09-09T11:08:13.364Z,24.30
2018-09-09T11:10:42.657Z,24.50
2018-09-09T11:13:11.879Z,24.70
2018-09-09T11:15:41.102Z,24.60
2018-09-09T11:18:10.737Z,24.60
2018-09-09T11:20:39.965Z,24.60
2018-09-09T11:23:09.172Z,24.60
2018-09-09T11:25:38.317Z,24.40
2018-09-09T11:28:10.419Z,24.00
2018-09-09T11:30:44.151Z,23.80
2018-09-09T11:33:14.006Z,23.70
2018-09-09T11:35:43.386Z,23.60
2018-09-09T11:38:12.675Z,23.70
2018-09-09T11:40:41.972Z,23.80
2018-09-09T11:43:12.347Z,23.90
2018-09-09T11:45:42.785Z,24.00
2018-09-09T11:48:12.574Z,24.10
2018-09-09T11:50:42.601Z,24.30
2018-09-09T11:53:25.625Z,24.30
2018-09-09T11:55:56.688Z,24.40
2018-09-09T11:58:30.211Z,24.40
2018-09-09T12:01:08.743Z,24.50
2018-09-09T12:03:38.222Z,24.60
2018-09-09T12:06:07.502Z,24.60
2018-09-09T12:08:36.717Z,24.60
2018-09-09T12:11:12.008Z,24.70
2018-09-09T12:13:41.648Z,24.70
2018-09-09T12:16:10.824Z,24.60
2018-09-09T12:18:40.033Z,24.80
2018-09-09T12:21:10.031Z,24.70
2018-09-09T12:23:39.324Z,24.70
2018-09-09T12:26:08.425Z,24.60
2018-09-09T12:28:38.491Z,24.60
2018-09-09T12:31:07.684Z,24.60
2018-09-09T12:33:36.855Z,24.60
2018-09-09T12:36:06.787Z,24.70
2018-09-09T12:38:36.095Z,24.90
2018-09-09T12:41:05.658Z,25.00
2018-09-09T12:43:40.183Z,25.10
2018-09-09T12:46:14.651Z,25.10
2018-09-09T12:48:49.259Z,25.00
2018-09-09T12:51:18.490Z,25.00
2018-09-09T12:53:48.905Z,25.00
2018-09-09T12:56:18.209Z,25.20
2018-09-09T12:58:47.507Z,25.20
2018-09-09T13:01:16.715Z,25.20
2018-09-09T13:03:45.994Z,25.30
2018-09-09T13:06:15.373Z,25.00
2018-09-09T13:08:44.746Z,25.10
2018-09-09T13:11:13.890Z,25.00
2018-09-09T13:13:43.075Z,24.90
2018-09-09T13:16:12.270Z,24.90
2018-09-09T13:18:42.368Z,24.80
2018-09-09T13:21:11.535Z,24.80
2018-09-09T13:23:40.708Z,24.90
2018-09-09T13:26:09.848Z,25.10
2018-09-09T13:28:39.000Z,25.20
2018-09-09T13:31:08.161Z,25.10
2018-09-09T13:33:37.398Z,25.10
2018-09-09T13:36:06.550Z,25.20
2018-09-09T13:38:35.810Z,25.20
2018-09-09T13:41:05.011Z,25.10
2018-09-09T13:43:34.224Z,25.20
2018-09-09T13:46:03.435Z,25.10
2018-09-09T13:48:33.026Z,25.20
2018-09-09T13:51:02.154Z,25.10
2018-09-09T13:53:31.332Z,25.00
2018-09-09T13:56:00.726Z,25.00
2018-09-09T13:58:29.850Z,24.90
2018-09-09T14:00:59.044Z,24.90
2018-09-09T14:03:28.208Z,24.90
2018-09-09T14:05:57.370Z,24.90
2018-09-09T14:08:26.514Z,24.80
2018-09-09T14:10:55.720Z,24.80
2018-09-09T14:13:25.288Z,24.80
2018-09-09T14:15:54.529Z,24.80
2018-09-09T14:18:23.711Z,24.90
2018-09-09T14:20:52.858Z,24.90
2018-09-09T14:23:21.975Z,24.90
2018-09-09T14:25:51.114Z,24.90
2018-09-09T14:28:20.670Z,24.90
2018-09-09T14:30:49.854Z,25.00
2018-09-09T14:33:19.097Z,25.00
2018-09-09T14:35:48.259Z,24.90
2018-09-09T14:38:17.449Z,24.90
2018-09-09T14:40:46.610Z,24.90
2018-09-09T14:43:15.810Z,25.00
2018-09-09T14:45:45.048Z,25.00
2018-09-09T14:48:14.318Z,24.90
2018-09-09T14:50:43.571Z,24.90
2018-09-09T14:53:12.799Z,24.90
2018-09-09T14:55:41.946Z,25.00
2018-09-09T14:58:11.173Z,24.90
2018-09-09T15:00:40.357Z,24.80
2018-09-09T15:03:09.584Z,24.80
2018-09-09T15:05:38.786Z,24.90
2018-09-09T15:08:07.955Z,24.90
2018-09-09T15:10:37.155Z,24.80
2018-09-09T15:13:06.669Z,24.80
2018-09-09T15:15:35.865Z,24.80
2018-09-09T15:18:05.146Z,24.80
2018-09-09T15:20:34.281Z,24.80
2018-09-09T15:23:03.524Z,24.70
2018-09-09T15:25:32.679Z,24.80
2018-09-09T15:28:01.922Z,24.90
2018-09-09T15:30:31.078Z,24.80
2018-09-09T15:33:00.374Z,24.70
2018-09-09T15:35:29.573Z,24.70
2018-09-09T15:37:58.776Z,24.70
2018-09-09T15:40:27.966Z,24.70
2018-09-09T15:42:57.234Z,24.70
2018-09-09T15:45:26.437Z,24.60
2018-09-09T15:47:55.617Z,24.60
2018-09-09T15:50:24.765Z,24.60
2018-09-09T15:52:53.958Z,24.60
2018-09-09T15:55:23.169Z,24.70
2018-09-09T15:57:52.370Z,24.80
2018-09-09T16:00:21.524Z,24.70
2018-09-09T16:02:50.646Z,24.70
2018-09-09T16:05:19.850Z,24.60
2018-09-09T16:07:49.012Z,24.60
2018-09-09T16:10:18.208Z,24.50
2018-09-09T16:12:47.406Z,24.50
2018-09-09T16:15:16.583Z,24.50
2018-09-09T16:17:45.737Z,24.50
2018-09-09T16:20:14.886Z,24.50
2018-09-09T16:22:44.062Z,24.50
2018-09-09T16:25:13.243Z,24.40
2018-09-09T16:27:48.774Z,24.50
2018-09-09T16:30:17.967Z,24.40
2018-09-09T16:32:47.189Z,24.50
2018-09-09T16:35:16.469Z,24.40
2018-09-09T16:37:45.643Z,24.50
2018-09-09T16:40:14.782Z,24.40
2018-09-09T16:42:44.221Z,24.40
2018-09-09T16:45:13.325Z,24.30
2018-09-09T16:47:42.585Z,24.10
2018-09-09T16:50:12.641Z,24.10
2018-09-09T16:52:41.841Z,24.10
2018-09-09T16:55:11.007Z,24.10
2018-09-09T16:57:40.169Z,24.00
2018-09-09T17:00:09.362Z,24.00
2018-09-09T17:02:38.475Z,24.00
2018-09-09T17:05:07.651Z,24.00
2018-09-09T17:07:36.806Z,23.90
2018-09-09T17:10:06.015Z,23.90
2018-09-09T17:12:35.138Z,23.80
2018-09-09T17:15:04.837Z,23.80
2018-09-09T17:17:34.666Z,23.70
2018-09-09T17:20:03.868Z,23.70
2018-09-09T17:22:33.058Z,23.60
2018-09-09T17:25:02.255Z,23.60
2018-09-09T17:27:31.422Z,23.50
2018-09-09T17:30:00.630Z,23.50
2018-09-09T17:32:29.877Z,23.40
2018-09-09T17:34:59.038Z,23.40
2018-09-09T17:37:28.232Z,23.30
2018-09-09T17:39:57.360Z,23.30
2018-09-09T17:42:26.532Z,23.20
2018-09-09T17:44:55.755Z,23.10
2018-09-09T17:47:24.938Z,23.10
2018-09-09T17:49:54.084Z,23.00
2018-09-09T17:52:23.319Z,23.00
2018-09-09T17:54:54.735Z,22.90
2018-09-09T17:57:25.892Z,22.70
2018-09-09T17:59:56.822Z,22.60
2018-09-09T18:02:28.179Z,22.60
2018-09-09T18:04:57.381Z,22.50
2018-09-09T18:07:26.559Z,22.40
2018-09-09T18:09:56.085Z,22.30
2018-09-09T18:12:25.282Z,22.30
2018-09-09T18:14:55.179Z,22.20
2018-09-09T18:17:24.456Z,22.10
2018-09-09T18:19:53.598Z,22.10
2018-09-09T18:22:22.732Z,22.00
2018-09-09T18:24:51.993Z,22.00
2018-09-09T18:27:21.109Z,21.90
2018-09-09T18:29:50.378Z,21.80
2018-09-09T18:32:19.507Z,21.70
2018-09-09T18:34:48.678Z,21.70
2018-09-09T18:37:17.945Z,21.70
2018-09-09T18:39:47.251Z,21.60
2018-09-09T18:42:16.490Z,21.60
2018-09-09T18:44:45.727Z,21.50
2018-09-09T18:47:14.816Z,21.40
2018-09-09T18:49:44.076Z,21.40
2018-09-09T18:52:13.297Z,21.40
2018-09-09T18:54:42.471Z,21.30
2018-09-09T18:57:11.618Z,21.30
2018-09-09T18:59:40.890Z,21.30
2018-09-09T19:02:10.214Z,21.20
2018-09-09T19:04:39.365Z,21.30
2018-09-09T19:07:08.576Z,21.20
2018-09-09T19:09:37.781Z,21.20
2018-09-09T19:12:07.034Z,21.20
2018-09-09T19:14:36.310Z,21.10
2018-09-09T19:17:05.555Z,21.00
2018-09-09T19:19:34.756Z,21.00
2018-09-09T19:22:04.225Z,21.00
2018-09-09T19:24:33.448Z,21.00
2018-09-09T19:27:02.646Z,21.00
2018-09-09T19:29:31.838Z,21.00
2018-09-09T19:32:01.451Z,21.00
2018-09-09T19:34:30.657Z,20.80
2018-09-09T19:39:35.245Z,20.80
2018-09-09T19:42:04.447Z,20.80
2018-09-09T19:44:33.667Z,20.80
2018-09-09T19:47:02.880Z,20.90
2018-09-09T19:49:32.037Z,20.90
2018-09-09T19:52:01.311Z,20.90
2018-09-09T19:54:30.485Z,20.90
2018-09-09T19:56:59.710Z,20.90
2018-09-09T19:59:28.943Z,20.90
2018-09-09T20:01:58.170Z,20.80
2018-09-09T20:04:27.427Z,20.70
2018-09-09T20:06:56.568Z,20.70
2018-09-09T20:09:25.756Z,20.60
2018-09-09T20:11:54.900Z,20.70
2018-09-09T20:14:24.110Z,20.60
2018-09-09T20:16:53.293Z,20.60
2018-09-09T20:19:22.473Z,20.60
2018-09-09T20:21:52.677Z,20.50
2018-09-09T20:24:22.460Z,20.50
2018-09-09T20:26:51.959Z,20.40
2018-09-09T20:29:21.133Z,20.30
2018-09-09T20:31:50.542Z,20.20
2018-09-09T20:34:19.708Z,20.30
2018-09-09T20:36:48.916Z,20.40
2018-09-09T20:39:18.019Z,20.40
2018-09-09T20:41:47.163Z,20.40
2018-09-09T20:44:16.297Z,20.40
2018-09-09T20:46:45.517Z,20.40
2018-09-09T20:49:14.677Z,20.40
2018-09-09T20:51:43.886Z,20.20
2018-09-09T20:54:13.182Z,20.00
2018-09-09T20:56:42.280Z,20.10
2018-09-09T20:59:11.452Z,20.20
2018-09-09T21:01:40.702Z,20.00
2018-09-09T21:04:10.132Z,20.00
2018-09-09T21:06:39.262Z,19.80
2018-09-09T21:09:10.304Z,19.70
2018-09-09T21:11:39.532Z,19.70
2018-09-09T21:14:09.192Z,19.80
2018-09-09T21:16:38.593Z,19.50
2018-09-09T21:19:07.715Z,19.50
2018-09-09T21:21:36.945Z,19.40
2018-09-09T21:24:06.321Z,19.40
2018-09-09T21:26:35.420Z,19.50
2018-09-09T21:29:04.649Z,19.40
2018-09-09T21:31:33.905Z,19.10
2018-09-09T21:34:03.044Z,19.10
2018-09-09T21:36:32.367Z,19.20
2018-09-09T21:39:01.611Z,18.90
2018-09-09T21:41:30.789Z,18.90
2018-09-09T21:43:59.949Z,18.80
2018-09-09T21:46:29.205Z,18.90
2018-09-09T21:48:58.318Z,18.90
2018-09-09T21:51:27.705Z,19.00
2018-09-09T21:53:56.927Z,19.10
2018-09-09T21:56:26.203Z,19.10
2018-09-09T21:58:55.325Z,19.10
2018-09-09T22:02:29.754Z,18.90
2018-09-09T22:04:58.919Z,19.00
2018-09-09T22:07:28.067Z,18.90
2018-09-09T22:09:57.234Z,18.90
2018-09-09T22:12:26.437Z,18.90
2018-09-09T22:14:55.681Z,18.80
2018-09-09T22:17:24.838Z,18.80
2018-09-09T22:19:54.076Z,18.70
2018-09-09T22:22:23.230Z,18.80
2018-09-09T22:24:52.418Z,18.90
2018-09-09T22:27:21.649Z,19.00
2018-09-09T22:29:50.834Z,19.00
2018-09-09T22:32:20.055Z,19.00
2018-09-09T22:34:49.271Z,19.00
2018-09-09T22:37:18.443Z,18.90
2018-09-09T22:39:47.604Z,18.90
2018-09-09T22:42:17.033Z,18.80
2018-09-09T22:44:46.200Z,18.80
2018-09-09T22:47:15.397Z,18.80
2018-09-09T22:49:44.730Z,18.70
2018-09-09T22:52:13.914Z,18.60
2018-09-09T22:54:43.091Z,18.50
2018-09-09T22:57:12.313Z,18.30
2018-09-09T22:59:41.501Z,18.30
2018-09-09T23:02:10.831Z,18.10
2018-09-09T23:04:40.001Z,18.20
2018-09-09T23:07:09.190Z,18.30
2018-09-09T23:09:38.402Z,18.20
2018-09-09T23:12:07.527Z,18.00
2018-09-09T23:14:36.896Z,17.90
2018-09-09T23:17:06.082Z,17.90
2018-09-09T23:19:35.246Z,17.80
2018-09-09T23:22:04.405Z,17.90
2018-09-09T23:24:33.606Z,18.00
2018-09-09T23:27:02.872Z,18.10
2018-09-09T23:29:32.081Z,18.10
2018-09-09T23:32:01.282Z,18.10
2018-09-09T23:34:30.421Z,18.10
2018-09-09T23:36:59.568Z,18.10
2018-09-09T23:39:28.740Z,18.20
2018-09-09T23:41:57.876Z,18.30
2018-09-09T23:44:27.178Z,18.30
2018-09-09T23:46:56.330Z,18.10
2018-09-09T23:49:25.479Z,18.00
2018-09-09T23:51:54.641Z,18.00
2018-09-09T23:54:23.861Z,18.10
2018-09-09T23:56:53.033Z,18.40
2018-09-09T23:59:22.244Z,18.10
